createdAt,value
2023-08-16T00:00:05.139Z,13.43
2023-08-16T00:02:31.917Z,13.45
2023-08-16T00:04:58.598Z,13.33
2023-08-16T00:07:25.710Z,13.33
2023-08-16T00:09:55.565Z,13.21
2023-08-16T00:12:23.381Z,13.16
2023-08-16T00:14:50.151Z,13.25
2023-08-16T00:17:16.688Z,13.18
2023-08-16T00:19:43.710Z,13.20
2023-08-16T00:22:10.319Z,13.15
2023-08-16T00:24:37.034Z,13.17
2023-08-16T00:27:04.454Z,13.19
2023-08-16T00:29:31.220Z,13.21
2023-08-16T00:31:59.073Z,13.20
2023-08-16T00:34:25.673Z,13.17
2023-08-16T00:36:52.447Z,13.25
2023-08-16T00:39:19.200Z,13.24
2023-08-16T00:41:45.796Z,13.13
2023-08-16T00:44:12.388Z,13.12
2023-08-16T00:46:39.255Z,13.08
2023-08-16T00:49:06.054Z,13.11
2023-08-16T00:51:32.776Z,13.14
2023-08-16T00:53:59.469Z,13.07
2023-08-16T00:56:26.193Z,13.05
2023-08-16T00:58:56.050Z,13.01
2023-08-16T01:01:22.836Z,12.82
2023-08-16T01:03:51.954Z,12.82
2023-08-16T01:06:18.709Z,12.79
2023-08-16T01:08:45.371Z,12.66
2023-08-16T01:11:20.489Z,12.60
2023-08-16T01:13:58.249Z,12.73
2023-08-16T01:16:29.134Z,12.85
2023-08-16T01:18:57.697Z,12.84
2023-08-16T01:21:25.687Z,12.74
2023-08-16T01:24:00.390Z,12.78
2023-08-16T01:26:40.266Z,12.56
2023-08-16T01:29:09.072Z,12.60
2023-08-16T01:31:36.355Z,12.52
2023-08-16T01:34:06.485Z,12.41
2023-08-16T01:36:35.922Z,12.47
2023-08-16T01:39:02.941Z,12.32
2023-08-16T01:41:39.977Z,12.36
2023-08-16T01:44:08.970Z,12.27
2023-08-16T01:46:39.138Z,12.17
2023-08-16T01:49:08.228Z,12.16
2023-08-16T01:51:35.080Z,12.12
2023-08-16T01:54:01.836Z,12.17
2023-08-16T01:56:30.907Z,12.09
2023-08-16T01:58:57.770Z,12.07
2023-08-16T02:01:24.817Z,11.96
2023-08-16T02:03:51.578Z,11.97
2023-08-16T02:06:18.678Z,12.13
2023-08-16T02:08:45.459Z,12.13
2023-08-16T02:11:12.413Z,12.14
2023-08-16T02:13:39.408Z,12.12
2023-08-16T02:16:08.542Z,12.15
2023-08-16T02:21:15.087Z,12.17
2023-08-16T02:23:41.714Z,12.15
2023-08-16T02:26:08.336Z,12.11
2023-08-16T02:28:35.622Z,12.16
2023-08-16T02:31:06.500Z,12.18
2023-08-16T02:33:40.571Z,12.22
2023-08-16T02:36:07.243Z,12.09
2023-08-16T02:38:36.189Z,12.14
2023-08-16T02:41:02.970Z,12.10
2023-08-16T02:43:29.641Z,12.11
2023-08-16T02:45:57.001Z,12.08
2023-08-16T02:48:23.656Z,11.97
2023-08-16T02:50:50.540Z,12.04
2023-08-16T02:53:17.879Z,12.01
2023-08-16T02:55:44.632Z,11.92
2023-08-16T02:58:11.384Z,11.94
2023-08-16T03:00:39.827Z,11.86
2023-08-16T03:03:07.553Z,11.85
2023-08-16T03:05:34.322Z,11.81
2023-08-16T03:08:00.981Z,11.78
2023-08-16T03:10:27.606Z,11.78
2023-08-16T03:12:54.300Z,11.81
2023-08-16T03:15:21.091Z,11.83
2023-08-16T03:17:47.845Z,11.89
2023-08-16T03:20:14.892Z,11.90
2023-08-16T03:22:45.168Z,11.93
2023-08-16T03:27:54.187Z,11.74
2023-08-16T03:30:20.945Z,11.77
2023-08-16T03:32:50.852Z,11.73
2023-08-16T03:35:21.494Z,11.71
2023-08-16T03:37:48.249Z,11.68
2023-08-16T03:40:16.368Z,11.60
2023-08-16T03:43:01.442Z,11.53
2023-08-16T03:45:40.777Z,11.55
2023-08-16T03:48:16.866Z,11.58
2023-08-16T03:50:52.920Z,11.54
2023-08-16T03:53:56.556Z,11.58
2023-08-16T03:59:11.811Z,11.54
2023-08-16T04:01:47.518Z,11.56
2023-08-16T04:08:11.574Z,11.50
2023-08-16T04:11:02.862Z,11.53
2023-08-16T04:14:15.770Z,11.33
2023-08-16T04:16:59.966Z,11.34
2023-08-16T04:19:26.531Z,11.46
2023-08-16T04:21:58.761Z,11.40
2023-08-16T04:24:25.477Z,11.48
2023-08-16T04:26:52.160Z,11.43
2023-08-16T04:29:19.331Z,11.49
2023-08-16T04:31:46.238Z,11.45
2023-08-16T04:34:19.836Z,11.50
2023-08-16T04:37:12.582Z,11.65
2023-08-16T04:39:49.714Z,11.68
2023-08-16T04:42:16.585Z,11.81
2023-08-16T04:45:12.771Z,11.75
2023-08-16T04:47:45.312Z,11.94
2023-08-16T04:50:12.054Z,12.01
2023-08-16T04:52:39.022Z,12.07
2023-08-16T04:55:06.839Z,12.09
2023-08-16T04:57:34.825Z,12.12
2023-08-16T05:00:05.036Z,12.16
2023-08-16T05:02:34.148Z,12.20
2023-08-16T05:05:01.171Z,12.19
2023-08-16T05:07:27.823Z,12.18
2023-08-16T05:10:01.491Z,12.25
2023-08-16T05:12:30.950Z,12.27
2023-08-16T05:14:57.781Z,12.28
2023-08-16T05:17:25.752Z,12.35
2023-08-16T05:20:14.376Z,12.35
2023-08-16T05:23:19.542Z,12.32
2023-08-16T05:25:47.474Z,12.25
2023-08-16T05:28:39.295Z,12.27
2023-08-16T05:31:11.280Z,12.23
2023-08-16T05:33:39.708Z,12.10
2023-08-16T05:36:11.110Z,12.17
2023-08-16T05:38:37.721Z,12.18
2023-08-16T05:41:11.911Z,12.17
2023-08-16T05:43:38.832Z,12.07
2023-08-16T05:46:08.074Z,12.15
2023-08-16T05:48:37.525Z,12.10
2023-08-16T05:54:51.050Z,12.15
2023-08-16T05:57:28.948Z,12.32
2023-08-16T06:00:01.687Z,12.34
2023-08-16T06:02:30.692Z,12.55
2023-08-16T06:05:00.227Z,12.78
2023-08-16T06:07:27.742Z,12.92
2023-08-16T06:09:54.590Z,13.10
2023-08-16T06:12:21.759Z,13.27
2023-08-16T06:17:31.082Z,13.57
2023-08-16T06:19:57.876Z,13.77
2023-08-16T06:22:24.574Z,13.88
2023-08-16T06:24:54.689Z,14.04
2023-08-16T06:27:22.039Z,14.17
2023-08-16T06:29:49.045Z,14.35
2023-08-16T06:32:16.033Z,14.59
2023-08-16T06:34:42.748Z,14.72
2023-08-16T06:37:09.441Z,14.89
2023-08-16T06:39:36.200Z,14.91
2023-08-16T06:42:06.698Z,15.13
2023-08-16T06:44:34.519Z,15.30
2023-08-16T06:47:01.207Z,15.47
2023-08-16T06:49:27.903Z,15.73
2023-08-16T06:51:54.538Z,15.99
2023-08-16T06:54:21.233Z,16.18
2023-08-16T06:56:59.708Z,16.37
2023-08-16T06:59:28.587Z,16.45
2023-08-16T07:01:55.351Z,16.57
2023-08-16T07:04:24.900Z,16.82
2023-08-16T07:06:51.761Z,16.95
2023-08-16T07:09:23.404Z,17.17
2023-08-16T07:11:52.832Z,17.35
2023-08-16T07:14:25.160Z,17.70
2023-08-16T07:16:54.678Z,18.14
2023-08-16T07:19:23.878Z,18.61
2023-08-16T07:21:50.964Z,19.13
2023-08-16T07:24:17.651Z,19.52
2023-08-16T07:26:46.624Z,19.47
2023-08-16T07:29:13.351Z,19.50
2023-08-16T07:31:40.057Z,19.63
2023-08-16T07:34:07.026Z,19.73
2023-08-16T07:36:35.053Z,20.09
2023-08-16T07:39:02.238Z,20.20
2023-08-16T07:41:29.069Z,20.31
2023-08-16T07:43:59.476Z,20.19
2023-08-16T07:46:27.084Z,20.23
2023-08-16T07:48:54.110Z,20.27
2023-08-16T07:51:22.015Z,20.37
2023-08-16T07:53:48.823Z,20.46
2023-08-16T07:56:15.505Z,20.61
2023-08-16T07:58:44.320Z,20.82
2023-08-16T08:01:17.498Z,20.95
2023-08-16T08:03:44.231Z,20.63
2023-08-16T08:06:11.040Z,20.76
2023-08-16T08:08:37.738Z,20.63
2023-08-16T08:11:07.825Z,20.80
2023-08-16T08:13:34.493Z,20.94
2023-08-16T08:16:01.904Z,21.23
2023-08-16T08:18:28.565Z,21.41
2023-08-16T08:20:58.334Z,21.51
2023-08-16T08:23:24.974Z,21.78
2023-08-16T08:25:51.757Z,22.13
2023-08-16T08:28:19.730Z,22.75
2023-08-16T08:30:46.287Z,23.27
2023-08-16T08:33:12.956Z,23.27
2023-08-16T08:35:44.486Z,23.74
2023-08-16T08:38:11.614Z,24.23
2023-08-16T08:40:38.253Z,24.63
2023-08-16T08:43:07.342Z,24.96
2023-08-16T08:45:35.642Z,25.00
2023-08-16T08:48:02.990Z,25.15
2023-08-16T08:50:29.923Z,25.48
2023-08-16T08:52:57.828Z,25.48
2023-08-16T08:55:30.017Z,25.70
2023-08-16T08:58:03.120Z,25.27
2023-08-16T09:00:33.170Z,24.86
2023-08-16T09:03:06.397Z,25.08
2023-08-16T09:05:34.154Z,24.76
2023-08-16T09:08:01.852Z,24.95
2023-08-16T09:10:28.435Z,24.71
2023-08-16T09:12:55.905Z,24.82
2023-08-16T09:15:22.889Z,24.75
2023-08-16T09:17:52.119Z,24.54
2023-08-16T09:20:19.461Z,24.45
2023-08-16T09:22:48.890Z,24.30
2023-08-16T09:25:18.160Z,24.29
2023-08-16T09:27:44.834Z,24.36
2023-08-16T09:30:14.746Z,24.30
2023-08-16T09:32:41.448Z,24.27
2023-08-16T09:35:13.742Z,24.34
2023-08-16T09:37:40.953Z,24.48
2023-08-16T09:40:08.174Z,24.56
2023-08-16T09:42:35.179Z,24.45
2023-08-16T09:45:04.321Z,24.68
2023-08-16T09:50:07.194Z,24.78
2023-08-16T09:52:36.045Z,25.09
2023-08-16T09:55:03.861Z,25.13
2023-08-16T09:57:31.513Z,25.50
2023-08-16T09:59:58.393Z,25.69
2023-08-16T10:07:26.961Z,25.99
2023-08-16T10:09:54.508Z,25.94
2023-08-16T10:12:21.918Z,26.42
2023-08-16T10:14:48.495Z,26.55
2023-08-16T10:17:17.825Z,26.45
2023-08-16T10:19:48.648Z,26.63
2023-08-16T10:22:35.350Z,27.03
2023-08-16T10:25:14.373Z,27.18
2023-08-16T10:27:45.588Z,26.62
2023-08-16T10:30:25.378Z,26.68
2023-08-16T10:33:06.160Z,27.34
2023-08-16T10:35:36.152Z,27.32
2023-08-16T10:38:03.168Z,27.36
2023-08-16T10:43:04.614Z,27.11
2023-08-16T10:48:14.598Z,27.43
2023-08-16T10:50:41.806Z,26.97
2023-08-16T10:53:09.203Z,26.54
2023-08-16T10:55:36.917Z,26.86
2023-08-16T10:58:03.716Z,27.85
2023-08-16T11:00:37.487Z,28.25
2023-08-16T11:03:07.061Z,28.85
2023-08-16T11:05:35.153Z,28.92
2023-08-16T11:08:02.867Z,29.23
2023-08-16T11:10:38.896Z,29.11
2023-08-16T11:13:11.870Z,28.93
2023-08-16T11:15:40.033Z,28.80
2023-08-16T11:18:10.184Z,28.71
2023-08-16T11:20:37.970Z,29.04
2023-08-16T11:23:04.846Z,28.87
2023-08-16T11:25:34.954Z,28.67
2023-08-16T11:28:05.416Z,28.70
2023-08-16T11:30:32.902Z,28.97
2023-08-16T11:33:00.518Z,28.89
2023-08-16T11:35:27.250Z,28.69
2023-08-16T11:37:54.004Z,28.20
2023-08-16T11:40:23.696Z,28.38
2023-08-16T11:42:52.025Z,27.67
2023-08-16T11:45:20.482Z,27.88
2023-08-16T11:47:53.171Z,28.31
2023-08-16T11:50:20.868Z,28.03
2023-08-16T11:53:00.975Z,28.39
2023-08-16T11:55:30.912Z,28.53
2023-08-16T11:58:11.106Z,28.49
2023-08-16T12:00:38.112Z,28.66
2023-08-16T12:03:08.451Z,28.30
2023-08-16T12:05:39.790Z,28.65
2023-08-16T12:08:08.065Z,28.32
2023-08-16T12:10:36.316Z,28.27
2023-08-16T12:13:14.118Z,28.05
2023-08-16T12:15:42.694Z,27.80
2023-08-16T12:18:09.565Z,27.95
2023-08-16T12:20:37.139Z,27.88
2023-08-16T12:23:04.072Z,28.12
2023-08-16T12:25:30.743Z,28.35
2023-08-16T12:27:57.392Z,28.33
2023-08-16T12:30:24.103Z,28.33
2023-08-16T12:32:50.817Z,28.31
2023-08-16T12:35:17.664Z,28.04
2023-08-16T12:37:45.389Z,27.49
2023-08-16T12:40:13.738Z,28.14
2023-08-16T12:42:41.628Z,28.27
2023-08-16T12:45:09.785Z,28.57
2023-08-16T12:47:36.843Z,29.06
2023-08-16T12:50:03.679Z,29.13
2023-08-16T12:52:30.360Z,29.26
2023-08-16T12:54:56.978Z,29.03
2023-08-16T12:57:26.359Z,28.99
2023-08-16T12:59:54.533Z,28.75
2023-08-16T13:02:36.362Z,28.85
2023-08-16T13:05:12.463Z,28.57
2023-08-16T13:10:23.156Z,27.59
2023-08-16T13:18:19.220Z,27.64
2023-08-16T13:25:37.335Z,28.25
2023-08-16T13:28:18.377Z,27.81
2023-08-16T13:30:49.591Z,27.44
2023-08-16T13:35:51.070Z,27.80
2023-08-16T13:38:18.300Z,27.97
2023-08-16T13:43:25.341Z,28.18
2023-08-16T13:45:53.186Z,27.91
2023-08-16T13:48:19.975Z,27.72
2023-08-16T13:50:46.969Z,27.50
2023-08-16T13:53:16.578Z,27.24
2023-08-16T13:55:45.982Z,27.05
2023-08-16T13:58:13.052Z,26.87
2023-08-16T14:00:39.641Z,26.74
2023-08-16T14:03:06.509Z,26.67
2023-08-16T14:05:33.329Z,27.00
2023-08-16T14:07:59.896Z,26.94
2023-08-16T14:10:26.677Z,27.06
2023-08-16T14:12:53.366Z,27.05
2023-08-16T14:15:20.074Z,26.94
2023-08-16T14:17:46.943Z,26.79
2023-08-16T14:20:13.610Z,26.70
2023-08-16T14:22:40.308Z,26.52
2023-08-16T14:25:09.324Z,26.48
2023-08-16T14:27:36.065Z,26.19
2023-08-16T14:30:02.731Z,26.27
2023-08-16T14:32:29.484Z,26.26
2023-08-16T14:34:57.431Z,25.98
2023-08-16T14:37:24.495Z,25.90
2023-08-16T14:39:51.065Z,25.72
2023-08-16T14:42:20.745Z,25.91
2023-08-16T14:44:47.991Z,25.73
2023-08-16T14:47:14.678Z,25.80
2023-08-16T14:49:41.546Z,25.76
2023-08-16T14:52:11.095Z,25.62
2023-08-16T14:54:37.795Z,25.73
2023-08-16T14:57:04.605Z,25.67
2023-08-16T14:59:31.172Z,25.72
2023-08-16T15:01:57.837Z,25.87
2023-08-16T15:04:27.069Z,26.00
2023-08-16T15:06:53.987Z,25.97
2023-08-16T15:09:20.793Z,25.73
2023-08-16T15:11:47.423Z,25.65
2023-08-16T15:14:14.107Z,25.62
2023-08-16T15:16:40.801Z,25.92
2023-08-16T15:19:07.520Z,25.99
2023-08-16T15:21:36.109Z,25.79
2023-08-16T15:24:05.918Z,25.73
2023-08-16T15:26:32.654Z,25.61
2023-08-16T15:28:59.131Z,25.36
2023-08-16T15:31:25.897Z,25.17
2023-08-16T15:33:52.859Z,25.18
2023-08-16T15:36:19.529Z,25.19
2023-08-16T15:38:51.317Z,25.24
2023-08-16T15:41:19.638Z,25.08
2023-08-16T15:43:49.384Z,25.21
2023-08-16T15:46:16.026Z,25.09
2023-08-16T15:48:42.786Z,25.14
2023-08-16T15:51:09.522Z,25.40
2023-08-16T15:53:36.375Z,25.60
2023-08-16T15:56:06.041Z,25.64
2023-08-16T15:58:32.959Z,25.65
2023-08-16T16:01:04.044Z,25.64
2023-08-16T16:03:35.305Z,25.68
2023-08-16T16:06:04.144Z,25.51
2023-08-16T16:08:32.812Z,25.53
2023-08-16T16:10:59.908Z,25.45
2023-08-16T16:13:27.029Z,25.30
2023-08-16T16:15:53.766Z,25.23
2023-08-16T16:18:22.428Z,25.04
2023-08-16T16:20:49.370Z,24.88
2023-08-16T16:23:16.019Z,24.86
2023-08-16T16:25:42.652Z,24.67
2023-08-16T16:28:09.473Z,24.63
2023-08-16T16:30:36.216Z,24.69
2023-08-16T16:33:03.305Z,24.74
2023-08-16T16:35:30.121Z,24.71
2023-08-16T16:37:57.525Z,24.72
2023-08-16T16:40:24.348Z,24.61
2023-08-16T16:42:51.952Z,24.58
2023-08-16T16:45:21.506Z,24.63
2023-08-16T16:47:51.848Z,24.57
2023-08-16T16:50:22.026Z,24.55
2023-08-16T16:52:54.227Z,24.50
2023-08-16T16:55:26.365Z,24.56
2023-08-16T16:57:58.043Z,24.56
2023-08-16T17:00:46.983Z,24.44
2023-08-16T17:03:22.158Z,24.25
2023-08-16T17:05:54.023Z,24.16
2023-08-16T17:08:25.728Z,24.08
2023-08-16T17:10:58.224Z,23.97
2023-08-16T17:13:36.418Z,24.04
2023-08-16T17:16:05.300Z,23.92
2023-08-16T17:18:34.946Z,23.81
2023-08-16T17:21:22.287Z,23.66
2023-08-16T17:23:54.628Z,23.57
2023-08-16T17:26:30.477Z,23.38
2023-08-16T17:29:02.884Z,23.27
2023-08-16T17:31:49.633Z,23.16
2023-08-16T17:34:26.885Z,23.07
2023-08-16T17:37:01.017Z,22.96
2023-08-16T17:39:30.613Z,22.91
2023-08-16T17:41:57.468Z,22.89
2023-08-16T17:44:31.625Z,22.79
2023-08-16T17:49:53.997Z,22.79
2023-08-16T17:52:25.708Z,22.60
2023-08-16T17:54:58.573Z,22.47
2023-08-16T17:57:28.390Z,22.45
2023-08-16T17:59:55.096Z,22.27
2023-08-16T18:02:32.068Z,22.33
2023-08-16T18:05:47.980Z,22.40
2023-08-16T18:18:27.895Z,22.11
2023-08-16T18:21:00.894Z,21.92
2023-08-16T18:36:35.948Z,21.03
2023-08-16T18:51:00.044Z,20.20
2023-08-16T18:53:26.733Z,20.07
2023-08-16T19:00:50.471Z,19.78
2023-08-16T19:03:17.165Z,19.56
2023-08-16T19:12:39.773Z,18.88
2023-08-16T19:15:08.111Z,18.82
2023-08-16T19:17:51.421Z,18.64
2023-08-16T19:20:27.000Z,18.53
2023-08-16T19:22:54.192Z,18.51
2023-08-16T19:25:20.919Z,18.35
2023-08-16T19:31:22.880Z,18.04
2023-08-16T19:34:01.006Z,17.91
2023-08-16T19:36:27.710Z,17.91
2023-08-16T19:38:55.215Z,17.96
2023-08-16T19:41:21.841Z,17.84
2023-08-16T19:46:43.590Z,17.77
2023-08-16T19:52:39.483Z,17.63
2023-08-16T20:01:38.602Z,17.59
2023-08-16T20:04:25.261Z,17.37
2023-08-16T20:07:07.110Z,17.29
2023-08-16T20:13:27.926Z,17.30
2023-08-16T20:16:15.189Z,17.24
2023-08-16T20:25:21.494Z,17.07
2023-08-16T20:28:00.279Z,16.99
2023-08-16T20:31:00.021Z,17.05
2023-08-16T20:40:29.074Z,16.88
2023-08-16T20:43:21.960Z,16.80
2023-08-16T20:45:48.633Z,16.81
2023-08-16T20:48:28.611Z,16.82
2023-08-16T20:51:04.263Z,16.70
2023-08-16T20:56:37.749Z,16.82
2023-08-16T21:00:14.527Z,16.78
2023-08-16T21:02:48.154Z,16.62
2023-08-16T21:06:37.265Z,16.78
2023-08-16T21:08:32.296Z,16.97
2023-08-16T21:16:37.760Z,17.15
2023-08-16T21:19:05.083Z,17.15
2023-08-16T21:21:43.518Z,17.09
2023-08-16T21:24:12.914Z,17.01
2023-08-16T21:26:50.777Z,16.87
2023-08-16T21:32:23.060Z,16.75
2023-08-16T21:34:52.805Z,16.67
2023-08-16T21:37:19.377Z,16.63
2023-08-16T21:39:47.202Z,16.51
2023-08-16T21:42:16.683Z,16.53
2023-08-16T21:45:04.961Z,16.48
2023-08-16T21:48:07.754Z,16.39
2023-08-16T21:51:09.722Z,16.26
2023-08-16T21:53:36.381Z,16.23
2023-08-16T21:56:09.489Z,16.12
2023-08-16T21:58:36.039Z,16.12
2023-08-16T22:01:08.578Z,16.02
2023-08-16T22:03:35.313Z,16.00
2023-08-16T22:06:07.705Z,15.97
2023-08-16T22:11:39.104Z,15.78
2023-08-16T22:14:05.789Z,15.81
2023-08-16T22:16:35.371Z,15.73
2023-08-16T22:19:02.067Z,15.68
2023-08-16T22:21:41.772Z,15.66
2023-08-16T22:27:07.771Z,15.68
2023-08-16T22:30:45.767Z,15.74
2023-08-16T22:33:12.354Z,15.66
2023-08-16T22:35:38.922Z,15.73
2023-08-16T22:41:36.562Z,15.68
2023-08-16T22:44:03.269Z,15.78
2023-08-16T22:46:31.593Z,15.90
2023-08-16T22:48:58.181Z,15.92
2023-08-16T22:51:52.322Z,15.91
2023-08-16T22:54:54.479Z,15.91
2023-08-16T23:00:36.570Z,16.00
2023-08-16T23:04:10.540Z,15.96
2023-08-16T23:09:06.564Z,15.98
2023-08-16T23:11:33.098Z,15.89
2023-08-16T23:13:59.674Z,16.01
2023-08-16T23:16:26.424Z,15.80
2023-08-16T23:19:12.977Z,15.89
2023-08-16T23:22:00.925Z,15.73
2023-08-16T23:27:19.570Z,15.81
2023-08-16T23:29:49.155Z,15.87
2023-08-16T23:32:23.185Z,15.85
2023-08-16T23:34:52.603Z,15.74
2023-08-16T23:47:30.835Z,15.71
2023-08-16T23:52:37.840Z,15.66
2023-08-16T23:55:05.472Z,15.66
2023-08-16T23:57:32.042Z,15.65
